sensor_id;sensor_type;location;lat;lon;timestamp;pressure;altitude;pressure_sealevel;temperature;humidity
12203;BME280;6164;42.178;24.622;2022-10-16T00:00:43;100358.09;;;11.43;94.98
12203;BME280;6164;42.178;24.622;2022-10-16T00:03:10;100362.41;;;11.44;96.26
12203;BME280;6164;42.178;24.622;2022-10-16T00:05:42;100369.66;;;11.42;96.73
12203;BME280;6164;42.178;24.622;2022-10-16T00:08:10;100368.16;;;11.39;96.81
12203;BME280;6164;42.178;24.622;2022-10-16T00:10:37;100366.47;;;11.38;97.14
12203;BME280;6164;42.178;24.622;2022-10-16T00:13:04;100374.88;;;11.34;97.64
12203;BME280;6164;42.178;24.622;2022-10-16T00:15:30;100370.22;;;11.28;97.67
12203;BME280;6164;42.178;24.622;2022-10-16T00:18:02;100377.78;;;11.23;98.33
12203;BME280;6164;42.178;24.622;2022-10-16T00:20:28;100371.97;;;11.19;99.16
12203;BME280;6164;42.178;24.622;2022-10-16T00:22:57;100373.53;;;11.12;99.43
12203;BME280;6164;42.178;24.622;2022-10-16T00:25:24;100367.72;;;11.09;99.59
12203;BME280;6164;42.178;24.622;2022-10-16T00:27:50;100364.72;;;11.04;100.00
12203;BME280;6164;42.178;24.622;2022-10-16T00:30:17;100359.75;;;11.01;100.00
12203;BME280;6164;42.178;24.622;2022-10-16T00:32:43;100369.94;;;10.96;100.00
12203;BME280;6164;42.178;24.622;2022-10-16T00:35:10;100369.44;;;10.92;100.00
12203;BME280;6164;42.178;24.622;2022-10-16T00:37:36;100368.06;;;10.88;100.00
12203;BME280;6164;42.178;24.622;2022-10-16T00:40:05;100382.66;;;10.92;100.00
12203;BME280;6164;42.178;24.622;2022-10-16T00:42:31;100381.66;;;10.93;100.00
12203;BME280;6164;42.178;24.622;2022-10-16T00:44:58;100380.00;;;10.92;100.00
12203;BME280;6164;42.178;24.622;2022-10-16T00:47:26;100383.97;;;10.96;100.00
12203;BME280;6164;42.178;24.622;2022-10-16T00:49:56;100390.78;;;10.99;100.00
12203;BME280;6164;42.178;24.622;2022-10-16T00:52:24;100383.53;;;11.01;100.00
12203;BME280;6164;42.178;24.622;2022-10-16T00:54:51;100392.97;;;11.03;100.00
12203;BME280;6164;42.178;24.622;2022-10-16T00:57:19;100397.56;;;11.01;100.00
12203;BME280;6164;42.178;24.622;2022-10-16T00:59:46;100397.41;;;11.03;100.00
12203;BME280;6164;42.178;24.622;2022-10-16T01:02:13;100397.25;;;11.04;100.00
12203;BME280;6164;42.178;24.622;2022-10-16T01:04:42;100397.94;;;11.06;100.00
12203;BME280;6164;42.178;24.622;2022-10-16T01:07:10;100410.84;;;11.09;100.00
12203;BME280;6164;42.178;24.622;2022-10-16T01:09:41;100412.81;;;11.07;100.00
12203;BME280;6164;42.178;24.622;2022-10-16T01:12:13;100418.25;;;11.06;100.00
12203;BME280;6164;42.178;24.622;2022-10-16T01:14:44;100425.66;;;11.02;100.00
12203;BME280;6164;42.178;24.622;2022-10-16T01:17:12;100429.44;;;11.00;100.00
12203;BME280;6164;42.178;24.622;2022-10-16T01:19:45;100423.38;;;10.90;100.00
12203;BME280;6164;42.178;24.622;2022-10-16T01:22:15;100420.28;;;10.77;100.00
12203;BME280;6164;42.178;24.622;2022-10-16T01:24:44;100423.00;;;10.67;100.00
12203;BME280;6164;42.178;24.622;2022-10-16T01:27:13;100429.16;;;10.58;100.00
12203;BME280;6164;42.178;24.622;2022-10-16T01:29:43;100430.06;;;10.49;100.00
12203;BME280;6164;42.178;24.622;2022-10-16T01:32:14;100425.09;;;10.36;100.00
12203;BME280;6164;42.178;24.622;2022-10-16T01:34:44;100436.25;;;10.30;100.00
12203;BME280;6164;42.178;24.622;2022-10-16T01:37:14;100434.63;;;10.20;100.00
12203;BME280;6164;42.178;24.622;2022-10-16T01:39:42;100444.38;;;10.10;100.00
12203;BME280;6164;42.178;24.622;2022-10-16T01:42:13;100442.28;;;10.04;100.00
12203;BME280;6164;42.178;24.622;2022-10-16T01:44:42;100445.66;;;9.96;100.00
12203;BME280;6164;42.178;24.622;2022-10-16T01:47:09;100445.41;;;9.90;100.00
12203;BME280;6164;42.178;24.622;2022-10-16T01:49:37;100444.47;;;9.81;100.00
12203;BME280;6164;42.178;24.622;2022-10-16T01:52:05;100445.44;;;9.71;100.00
12203;BME280;6164;42.178;24.622;2022-10-16T01:54:33;100447.97;;;9.63;100.00
12203;BME280;6164;42.178;24.622;2022-10-16T01:57:01;100456.16;;;9.60;100.00
12203;BME280;6164;42.178;24.622;2022-10-16T01:59:31;100449.47;;;9.56;100.00
12203;BME280;6164;42.178;24.622;2022-10-16T02:02:00;100453.53;;;9.50;100.00
12203;BME280;6164;42.178;24.622;2022-10-16T02:04:31;100451.28;;;9.46;100.00
12203;BME280;6164;42.178;24.622;2022-10-16T02:06:58;100454.91;;;9.45;100.00
12203;BME280;6164;42.178;24.622;2022-10-16T02:09:25;100457.56;;;9.45;100.00
12203;BME280;6164;42.178;24.622;2022-10-16T02:11:52;100463.81;;;9.44;100.00
12203;BME280;6164;42.178;24.622;2022-10-16T02:14:20;100456.72;;;9.44;100.00
12203;BME280;6164;42.178;24.622;2022-10-16T02:16:49;100454.22;;;9.43;100.00
12203;BME280;6164;42.178;24.622;2022-10-16T02:19:17;100464.75;;;9.43;100.00
12203;BME280;6164;42.178;24.622;2022-10-16T02:21:48;100465.59;;;9.43;100.00
12203;BME280;6164;42.178;24.622;2022-10-16T02:24:17;100465.03;;;9.40;100.00
12203;BME280;6164;42.178;24.622;2022-10-16T02:26:49;100467.81;;;9.38;100.00
12203;BME280;6164;42.178;24.622;2022-10-16T02:29:18;100464.91;;;9.31;100.00
12203;BME280;6164;42.178;24.622;2022-10-16T02:31:47;100474.06;;;9.27;100.00
12203;BME280;6164;42.178;24.622;2022-10-16T02:34:17;100469.91;;;9.25;100.00
12203;BME280;6164;42.178;24.622;2022-10-16T02:36:44;100473.53;;;9.24;100.00
12203;BME280;6164;42.178;24.622;2022-10-16T02:39:12;100474.75;;;9.20;100.00
12203;BME280;6164;42.178;24.622;2022-10-16T02:41:39;100475.19;;;9.15;100.00
12203;BME280;6164;42.178;24.622;2022-10-16T02:44:06;100474.75;;;9.10;100.00
12203;BME280;6164;42.178;24.622;2022-10-16T02:46:32;100481.25;;;9.06;100.00
12203;BME280;6164;42.178;24.622;2022-10-16T02:48:59;100485.97;;;9.03;100.00
12203;BME280;6164;42.178;24.622;2022-10-16T02:51:27;100493.34;;;8.99;100.00
12203;BME280;6164;42.178;24.622;2022-10-16T02:53:53;100495.66;;;8.93;100.00
12203;BME280;6164;42.178;24.622;2022-10-16T02:56:20;100501.31;;;8.88;100.00
12203;BME280;6164;42.178;24.622;2022-10-16T02:58:46;100501.88;;;8.82;100.00
12203;BME280;6164;42.178;24.622;2022-10-16T03:01:13;100499.78;;;8.76;100.00
12203;BME280;6164;42.178;24.622;2022-10-16T03:03:41;100500.88;;;8.74;100.00
12203;BME280;6164;42.178;24.622;2022-10-16T03:06:08;100500.31;;;8.70;100.00
12203;BME280;6164;42.178;24.622;2022-10-16T03:08:36;100502.94;;;8.70;100.00
12203;BME280;6164;42.178;24.622;2022-10-16T03:11:02;100506.41;;;8.71;100.00
12203;BME280;6164;42.178;24.622;2022-10-16T03:13:29;100508.91;;;8.72;100.00
12203;BME280;6164;42.178;24.622;2022-10-16T03:15:55;100514.88;;;8.74;100.00
12203;BME280;6164;42.178;24.622;2022-10-16T03:18:22;100522.91;;;8.73;100.00
12203;BME280;6164;42.178;24.622;2022-10-16T03:20:48;100515.84;;;8.73;100.00
12203;BME280;6164;42.178;24.622;2022-10-16T03:23:15;100519.59;;;8.71;100.00
12203;BME280;6164;42.178;24.622;2022-10-16T03:25:42;100521.38;;;8.70;100.00
12203;BME280;6164;42.178;24.622;2022-10-16T03:28:09;100520.13;;;8.65;100.00
12203;BME280;6164;42.178;24.622;2022-10-16T03:30:35;100526.03;;;8.57;100.00
12203;BME280;6164;42.178;24.622;2022-10-16T03:33:02;100525.88;;;8.49;100.00
12203;BME280;6164;42.178;24.622;2022-10-16T03:35:28;100532.88;;;8.39;100.00
12203;BME280;6164;42.178;24.622;2022-10-16T03:37:55;100533.59;;;8.21;100.00
12203;BME280;6164;42.178;24.622;2022-10-16T03:40:21;100536.69;;;8.05;100.00
12203;BME280;6164;42.178;24.622;2022-10-16T03:42:49;100539.81;;;7.99;100.00
12203;BME280;6164;42.178;24.622;2022-10-16T03:45:16;100538.25;;;7.87;100.00
12203;BME280;6164;42.178;24.622;2022-10-16T03:47:42;100546.63;;;7.81;100.00
12203;BME280;6164;42.178;24.622;2022-10-16T03:50:09;100548.13;;;7.74;100.00
12203;BME280;6164;42.178;24.622;2022-10-16T03:52:35;100543.44;;;7.77;100.00
12203;BME280;6164;42.178;24.622;2022-10-16T03:55:02;100549.97;;;7.83;100.00
12203;BME280;6164;42.178;24.622;2022-10-16T03:57:28;100548.88;;;7.85;100.00
12203;BME280;6164;42.178;24.622;2022-10-16T03:59:56;100542.53;;;7.88;100.00
12203;BME280;6164;42.178;24.622;2022-10-16T04:02:23;100547.53;;;7.91;100.00
12203;BME280;6164;42.178;24.622;2022-10-16T04:04:49;100543.81;;;7.93;100.00
12203;BME280;6164;42.178;24.622;2022-10-16T04:07:16;100532.47;;;7.93;100.00
12203;BME280;6164;42.178;24.622;2022-10-16T04:09:42;100541.47;;;7.90;100.00
12203;BME280;6164;42.178;24.622;2022-10-16T04:12:09;100539.19;;;7.86;100.00
12203;BME280;6164;42.178;24.622;2022-10-16T04:14:35;100543.75;;;7.84;100.00
12203;BME280;6164;42.178;24.622;2022-10-16T04:17:03;100540.41;;;7.82;100.00
12203;BME280;6164;42.178;24.622;2022-10-16T04:19:29;100541.22;;;7.82;100.00
12203;BME280;6164;42.178;24.622;2022-10-16T04:21:56;100540.41;;;7.82;100.00
12203;BME280;6164;42.178;24.622;2022-10-16T04:24:22;100544.84;;;7.81;100.00
12203;BME280;6164;42.178;24.622;2022-10-16T04:26:49;100531.81;;;7.80;100.00
12203;BME280;6164;42.178;24.622;2022-10-16T04:29:15;100540.69;;;7.79;100.00
12203;BME280;6164;42.178;24.622;2022-10-16T04:31:42;100540.09;;;7.75;100.00
12203;BME280;6164;42.178;24.622;2022-10-16T04:34:10;100544.63;;;7.73;100.00
12203;BME280;6164;42.178;24.622;2022-10-16T04:36:36;100541.31;;;7.71;100.00
12203;BME280;6164;42.178;24.622;2022-10-16T04:39:03;100544.06;;;7.70;100.00
12203;BME280;6164;42.178;24.622;2022-10-16T04:41:29;100551.09;;;7.69;100.00
12203;BME280;6164;42.178;24.622;2022-10-16T04:43:56;100548.59;;;7.68;100.00
12203;BME280;6164;42.178;24.622;2022-10-16T04:46:22;100561.38;;;7.72;100.00
12203;BME280;6164;42.178;24.622;2022-10-16T04:48:49;100559.56;;;7.73;100.00
12203;BME280;6164;42.178;24.622;2022-10-16T04:51:17;100563.03;;;7.73;100.00
12203;BME280;6164;42.178;24.622;2022-10-16T04:53:44;100567.47;;;7.73;100.00
12203;BME280;6164;42.178;24.622;2022-10-16T04:56:10;100573.09;;;7.68;100.00
12203;BME280;6164;42.178;24.622;2022-10-16T04:58:36;100570.13;;;7.62;100.00
12203;BME280;6164;42.178;24.622;2022-10-16T05:01:03;100579.28;;;7.47;100.00
12203;BME280;6164;42.178;24.622;2022-10-16T05:03:30;100576.06;;;7.43;100.00
12203;BME280;6164;42.178;24.622;2022-10-16T05:05:56;100580.50;;;7.43;100.00
12203;BME280;6164;42.178;24.622;2022-10-16T05:08:27;100581.19;;;7.45;100.00
12203;BME280;6164;42.178;24.622;2022-10-16T05:10:53;100580.50;;;7.43;100.00
12203;BME280;6164;42.178;24.622;2022-10-16T05:13:20;100588.88;;;7.26;100.00
12203;BME280;6164;42.178;24.622;2022-10-16T05:15:47;100593.16;;;7.27;100.00
12203;BME280;6164;42.178;24.622;2022-10-16T05:18:14;100602.00;;;7.37;100.00
12203;BME280;6164;42.178;24.622;2022-10-16T05:20:41;100604.94;;;7.43;100.00
12203;BME280;6164;42.178;24.622;2022-10-16T05:23:07;100617.22;;;7.54;100.00
12203;BME280;6164;42.178;24.622;2022-10-16T05:25:36;100618.75;;;7.56;100.00
12203;BME280;6164;42.178;24.622;2022-10-16T05:28:03;100620.53;;;7.67;100.00
12203;BME280;6164;42.178;24.622;2022-10-16T05:30:29;100629.00;;;7.70;100.00
12203;BME280;6164;42.178;24.622;2022-10-16T05:32:56;100632.44;;;7.82;100.00
12203;BME280;6164;42.178;24.622;2022-10-16T05:35:22;100631.66;;;7.91;100.00
12203;BME280;6164;42.178;24.622;2022-10-16T05:37:49;100634.72;;;8.07;100.00
12203;BME280;6164;42.178;24.622;2022-10-16T05:40:15;100642.66;;;8.17;100.00
12203;BME280;6164;42.178;24.622;2022-10-16T05:42:43;100648.88;;;8.27;100.00
12203;BME280;6164;42.178;24.622;2022-10-16T05:45:10;100646.81;;;8.19;100.00
12203;BME280;6164;42.178;24.622;2022-10-16T05:47:37;100654.06;;;8.06;100.00
12203;BME280;6164;42.178;24.622;2022-10-16T05:50:04;100650.72;;;8.04;100.00
12203;BME280;6164;42.178;24.622;2022-10-16T05:52:31;100659.06;;;8.09;100.00
12203;BME280;6164;42.178;24.622;2022-10-16T05:54:57;100664.97;;;8.22;100.00
12203;BME280;6164;42.178;24.622;2022-10-16T05:57:23;100667.28;;;8.16;100.00
12203;BME280;6164;42.178;24.622;2022-10-16T05:59:51;100666.56;;;8.25;100.00
12203;BME280;6164;42.178;24.622;2022-10-16T06:02:18;100671.75;;;8.36;100.00
12203;BME280;6164;42.178;24.622;2022-10-16T06:04:44;100669.97;;;8.36;100.00
12203;BME280;6164;42.178;24.622;2022-10-16T06:07:11;100668.06;;;8.38;100.00
12203;BME280;6164;42.178;24.622;2022-10-16T06:09:40;100673.97;;;8.51;100.00
12203;BME280;6164;42.178;24.622;2022-10-16T06:12:06;100677.16;;;8.55;100.00
12203;BME280;6164;42.178;24.622;2022-10-16T06:14:33;100682.22;;;8.67;100.00
12203;BME280;6164;42.178;24.622;2022-10-16T06:17:01;100688.25;;;8.79;100.00
12203;BME280;6164;42.178;24.622;2022-10-16T06:19:27;100693.28;;;8.91;100.00
12203;BME280;6164;42.178;24.622;2022-10-16T06:21:54;100693.09;;;9.04;100.00
12203;BME280;6164;42.178;24.622;2022-10-16T06:24:23;100695.59;;;9.05;100.00
12203;BME280;6164;42.178;24.622;2022-10-16T06:26:49;100696.03;;;9.10;100.00
12203;BME280;6164;42.178;24.622;2022-10-16T06:29:16;100697.84;;;9.19;100.00
12203;BME280;6164;42.178;24.622;2022-10-16T06:31:42;100698.09;;;9.37;100.00
12203;BME280;6164;42.178;24.622;2022-10-16T06:34:10;100701.97;;;9.43;100.00
12203;BME280;6164;42.178;24.622;2022-10-16T06:36:36;100703.25;;;9.48;100.00
12203;BME280;6164;42.178;24.622;2022-10-16T06:39:03;100713.53;;;9.61;100.00
12203;BME280;6164;42.178;24.622;2022-10-16T06:41:30;100708.31;;;9.70;100.00
12203;BME280;6164;42.178;24.622;2022-10-16T06:43:56;100703.31;;;9.86;100.00
12203;BME280;6164;42.178;24.622;2022-10-16T06:46:26;100699.88;;;10.05;100.00
12203;BME280;6164;42.178;24.622;2022-10-16T06:48:53;100704.06;;;10.26;100.00
12203;BME280;6164;42.178;24.622;2022-10-16T06:51:22;100689.31;;;10.43;100.00
12203;BME280;6164;42.178;24.622;2022-10-16T06:53:49;100684.88;;;10.43;100.00
12203;BME280;6164;42.178;24.622;2022-10-16T06:56:17;100685.16;;;10.50;100.00
12203;BME280;6164;42.178;24.622;2022-10-16T06:58:44;100691.38;;;10.68;100.00
12203;BME280;6164;42.178;24.622;2022-10-16T07:01:11;100685.81;;;10.81;100.00
12203;BME280;6164;42.178;24.622;2022-10-16T07:03:37;100681.44;;;10.89;100.00
12203;BME280;6164;42.178;24.622;2022-10-16T07:06:05;100680.00;;;11.04;100.00
12203;BME280;6164;42.178;24.622;2022-10-16T07:08:33;100681.34;;;11.18;100.00
12203;BME280;6164;42.178;24.622;2022-10-16T07:11:00;100681.16;;;11.29;100.00
12203;BME280;6164;42.178;24.622;2022-10-16T07:13:27;100682.47;;;11.42;100.00
12203;BME280;6164;42.178;24.622;2022-10-16T07:15:53;100689.53;;;11.51;100.00
12203;BME280;6164;42.178;24.622;2022-10-16T07:18:20;100676.41;;;11.59;100.00
12203;BME280;6164;42.178;24.622;2022-10-16T07:20:51;100680.66;;;11.70;100.00
12203;BME280;6164;42.178;24.622;2022-10-16T07:23:17;100681.97;;;11.83;100.00
12203;BME280;6164;42.178;24.622;2022-10-16T07:25:45;100678.06;;;11.87;100.00
12203;BME280;6164;42.178;24.622;2022-10-16T07:28:12;100670.56;;;12.01;100.00
12203;BME280;6164;42.178;24.622;2022-10-16T07:30:38;100666.41;;;12.16;100.00
12203;BME280;6164;42.178;24.622;2022-10-16T07:33:04;100670.00;;;12.32;100.00
12203;BME280;6164;42.178;24.622;2022-10-16T07:35:31;100666.50;;;12.49;100.00
12203;BME280;6164;42.178;24.622;2022-10-16T07:37:57;100666.41;;;12.59;100.00
12203;BME280;6164;42.178;24.622;2022-10-16T07:40:24;100666.97;;;12.70;99.84
12203;BME280;6164;42.178;24.622;2022-10-16T07:42:53;100669.56;;;12.80;99.34
12203;BME280;6164;42.178;24.622;2022-10-16T07:45:20;100661.69;;;12.96;98.60
12203;BME280;6164;42.178;24.622;2022-10-16T07:47:46;100666.06;;;13.05;96.39
12203;BME280;6164;42.178;24.622;2022-10-16T07:50:13;100671.09;;;13.16;96.01
12203;BME280;6164;42.178;24.622;2022-10-16T07:52:39;100668.81;;;13.21;95.36
12203;BME280;6164;42.178;24.622;2022-10-16T07:55:06;100665.19;;;13.30;94.22
12203;BME280;6164;42.178;24.622;2022-10-16T07:57:32;100666.53;;;13.34;93.39
12203;BME280;6164;42.178;24.622;2022-10-16T08:00:00;100662.28;;;13.49;93.29
12203;BME280;6164;42.178;24.622;2022-10-16T08:02:27;100662.66;;;13.62;92.93
12203;BME280;6164;42.178;24.622;2022-10-16T08:04:53;100656.88;;;13.75;92.19
12203;BME280;6164;42.178;24.622;2022-10-16T08:07:20;100650.41;;;13.77;90.07
12203;BME280;6164;42.178;24.622;2022-10-16T08:09:48;100663.38;;;13.80;90.07
12203;BME280;6164;42.178;24.622;2022-10-16T08:12:15;100655.06;;;13.83;89.85
12203;BME280;6164;42.178;24.622;2022-10-16T08:14:41;100660.72;;;13.88;89.83
12203;BME280;6164;42.178;24.622;2022-10-16T08:17:09;100658.75;;;13.90;89.57
12203;BME280;6164;42.178;24.622;2022-10-16T08:19:35;100649.94;;;13.98;88.71
12203;BME280;6164;42.178;24.622;2022-10-16T08:22:02;100655.75;;;14.09;88.13
12203;BME280;6164;42.178;24.622;2022-10-16T08:24:28;100656.25;;;14.21;86.99
12203;BME280;6164;42.178;24.622;2022-10-16T08:26:56;100650.81;;;14.30;87.37
12203;BME280;6164;42.178;24.622;2022-10-16T08:29:22;100656.47;;;14.35;85.96
12203;BME280;6164;42.178;24.622;2022-10-16T08:31:49;100646.66;;;14.44;85.84
12203;BME280;6164;42.178;24.622;2022-10-16T08:34:17;100655.28;;;14.54;84.41
12203;BME280;6164;42.178;24.622;2022-10-16T08:36:43;100648.63;;;14.66;84.94
12203;BME280;6164;42.178;24.622;2022-10-16T08:39:09;100652.22;;;14.81;84.08
12203;BME280;6164;42.178;24.622;2022-10-16T08:41:46;100646.06;;;14.97;84.43
12203;BME280;6164;42.178;24.622;2022-10-16T08:44:20;100652.84;;;15.07;82.33
12203;BME280;6164;42.178;24.622;2022-10-16T08:46:51;100644.53;;;15.10;80.66
12203;BME280;6164;42.178;24.622;2022-10-16T08:49:24;100645.16;;;15.12;80.77
12203;BME280;6164;42.178;24.622;2022-10-16T08:51:50;100648.00;;;15.19;79.98
12203;BME280;6164;42.178;24.622;2022-10-16T08:54:26;100647.94;;;15.27;79.40
12203;BME280;6164;42.178;24.622;2022-10-16T08:56:54;100640.09;;;15.41;79.52
12203;BME280;6164;42.178;24.622;2022-10-16T08:59:21;100641.69;;;15.50;75.59
12203;BME280;6164;42.178;24.622;2022-10-16T09:01:49;100643.16;;;15.61;74.87
12203;BME280;6164;42.178;24.622;2022-10-16T09:04:37;100641.41;;;15.76;75.63
12203;BME280;6164;42.178;24.622;2022-10-16T09:07:08;100643.69;;;15.79;72.89
12203;BME280;6164;42.178;24.622;2022-10-16T09:09:42;100642.97;;;15.85;70.42
12203;BME280;6164;42.178;24.622;2022-10-16T09:12:17;100640.44;;;15.92;68.68
12203;BME280;6164;42.178;24.622;2022-10-16T09:14:51;100641.22;;;16.00;69.21
12203;BME280;6164;42.178;24.622;2022-10-16T09:17:22;100647.69;;;16.06;68.52
12203;BME280;6164;42.178;24.622;2022-10-16T09:19:55;100641.56;;;16.20;69.06
12203;BME280;6164;42.178;24.622;2022-10-16T09:22:25;100638.13;;;16.34;69.47
12203;BME280;6164;42.178;24.622;2022-10-16T09:24:53;100634.31;;;16.51;70.29
12203;BME280;6164;42.178;24.622;2022-10-16T09:27:20;100640.03;;;16.62;67.09
12203;BME280;6164;42.178;24.622;2022-10-16T09:29:46;100649.34;;;16.66;63.32
12203;BME280;6164;42.178;24.622;2022-10-16T09:32:14;100634.56;;;16.78;66.25
12203;BME280;6164;42.178;24.622;2022-10-16T09:34:42;100627.75;;;16.90;66.07
12203;BME280;6164;42.178;24.622;2022-10-16T09:37:12;100629.50;;;16.98;61.61
12203;BME280;6164;42.178;24.622;2022-10-16T09:39:46;100630.41;;;17.05;61.99
12203;BME280;6164;42.178;24.622;2022-10-16T09:42:14;100632.81;;;17.15;61.56
12203;BME280;6164;42.178;24.622;2022-10-16T09:44:41;100633.34;;;17.25;61.14
12203;BME280;6164;42.178;24.622;2022-10-16T09:47:12;100631.84;;;17.37;60.27
12203;BME280;6164;42.178;24.622;2022-10-16T09:49:39;100627.91;;;17.47;60.19
12203;BME280;6164;42.178;24.622;2022-10-16T09:52:09;100634.34;;;17.53;56.91
12203;BME280;6164;42.178;24.622;2022-10-16T09:54:38;100622.47;;;17.55;57.59
12203;BME280;6164;42.178;24.622;2022-10-16T09:57:14;100629.78;;;17.68;57.60
12203;BME280;6164;42.178;24.622;2022-10-16T09:59:45;100633.72;;;17.72;54.11
12203;BME280;6164;42.178;24.622;2022-10-16T10:02:12;100629.84;;;17.74;54.60
12203;BME280;6164;42.178;24.622;2022-10-16T10:04:41;100625.59;;;17.80;54.36
12203;BME280;6164;42.178;24.622;2022-10-16T10:07:15;100615.81;;;17.87;54.78
12203;BME280;6164;42.178;24.622;2022-10-16T10:09:45;100615.69;;;17.95;54.59
12203;BME280;6164;42.178;24.622;2022-10-16T10:12:16;100600.75;;;18.00;55.27
12203;BME280;6164;42.178;24.622;2022-10-16T10:14:44;100614.47;;;17.97;52.79
12203;BME280;6164;42.178;24.622;2022-10-16T10:17:13;100619.75;;;17.91;51.54
12203;BME280;6164;42.178;24.622;2022-10-16T10:19:42;100620.00;;;17.96;51.18
12203;BME280;6164;42.178;24.622;2022-10-16T10:22:16;100609.03;;;18.05;52.84
12203;BME280;6164;42.178;24.622;2022-10-16T10:24:46;100629.88;;;17.95;50.22
12203;BME280;6164;42.178;24.622;2022-10-16T10:27:20;100621.81;;;17.89;49.81
12203;BME280;6164;42.178;24.622;2022-10-16T10:29:51;100625.72;;;17.93;48.26
12203;BME280;6164;42.178;24.622;2022-10-16T10:32:24;100627.50;;;17.86;48.49
12203;BME280;6164;42.178;24.622;2022-10-16T10:35:00;100614.84;;;17.73;49.24
12203;BME280;6164;42.178;24.622;2022-10-16T10:37:37;100606.25;;;17.78;49.36
12203;BME280;6164;42.178;24.622;2022-10-16T10:40:11;100565.13;;;17.93;52.26
12203;BME280;6164;42.178;24.622;2022-10-16T10:42:43;100570.38;;;18.08;51.72
12203;BME280;6164;42.178;24.622;2022-10-16T10:45:17;100573.78;;;18.23;51.44
12203;BME280;6164;42.178;24.622;2022-10-16T10:47:47;100582.31;;;18.33;50.23
12203;BME280;6164;42.178;24.622;2022-10-16T10:50:18;100575.41;;;18.45;50.63
12203;BME280;6164;42.178;24.622;2022-10-16T10:52:55;100601.59;;;18.50;48.01
12203;BME280;6164;42.178;24.622;2022-10-16T10:55:25;100590.31;;;18.54;48.81
12203;BME280;6164;42.178;24.622;2022-10-16T11:00:42;100574.56;;;18.72;50.09
12203;BME280;6164;42.178;24.622;2022-10-16T11:03:18;100565.75;;;18.78;49.73
12203;BME280;6164;42.178;24.622;2022-10-16T11:05:47;100563.34;;;18.90;50.34
12203;BME280;6164;42.178;24.622;2022-10-16T11:08:16;100609.91;;;18.95;46.71
12203;BME280;6164;42.178;24.622;2022-10-16T11:10:50;100633.59;;;18.98;45.49
12203;BME280;6164;42.178;24.622;2022-10-16T11:13:27;100599.88;;;19.04;47.36
12203;BME280;6164;42.178;24.622;2022-10-16T11:15:57;100609.13;;;19.08;46.30
12203;BME280;6164;42.178;24.622;2022-10-16T11:18:26;100618.84;;;19.09;45.41
12203;BME280;6164;42.178;24.622;2022-10-16T11:20:57;100623.91;;;18.97;44.67
12203;BME280;6164;42.178;24.622;2022-10-16T11:23:26;100615.13;;;19.10;45.73
12203;BME280;6164;42.178;24.622;2022-10-16T11:25:57;100600.13;;;19.15;45.55
12203;BME280;6164;42.178;24.622;2022-10-16T11:28:26;100584.94;;;19.22;46.99
12203;BME280;6164;42.178;24.622;2022-10-16T11:30:57;100577.13;;;19.27;46.35
12203;BME280;6164;42.178;24.622;2022-10-16T11:33:25;100580.22;;;19.31;46.71
12203;BME280;6164;42.178;24.622;2022-10-16T11:35:58;100561.72;;;19.36;47.25
12203;BME280;6164;42.178;24.622;2022-10-16T11:38:27;100562.34;;;19.44;46.97
12203;BME280;6164;42.178;24.622;2022-10-16T11:41:01;100587.31;;;19.51;45.76
12203;BME280;6164;42.178;24.622;2022-10-16T11:43:31;100631.00;;;19.52;42.95
12203;BME280;6164;42.178;24.622;2022-10-16T11:46:02;100634.47;;;19.46;42.85
12203;BME280;6164;42.178;24.622;2022-10-16T11:48:31;100613.91;;;19.53;44.05
12203;BME280;6164;42.178;24.622;2022-10-16T11:51:05;100627.31;;;19.59;43.33
12203;BME280;6164;42.178;24.622;2022-10-16T11:53:37;100631.25;;;19.63;42.91
12203;BME280;6164;42.178;24.622;2022-10-16T11:56:06;100618.06;;;19.69;43.56
12203;BME280;6164;42.178;24.622;2022-10-16T11:58:34;100617.25;;;19.75;43.95
12203;BME280;6164;42.178;24.622;2022-10-16T12:01:15;100647.78;;;19.80;42.08
12203;BME280;6164;42.178;24.622;2022-10-16T12:03:45;100653.53;;;19.84;42.73
12203;BME280;6164;42.178;24.622;2022-10-16T12:06:14;100651.09;;;19.89;43.10
12203;BME280;6164;42.178;24.622;2022-10-16T12:08:46;100666.56;;;19.87;41.93
12203;BME280;6164;42.178;24.622;2022-10-16T12:11:33;100649.03;;;19.97;42.36
12203;BME280;6164;42.178;24.622;2022-10-16T12:14:07;100672.16;;;20.05;41.48
12203;BME280;6164;42.178;24.622;2022-10-16T12:16:50;100681.44;;;20.09;41.13
12203;BME280;6164;42.178;24.622;2022-10-16T12:19:19;100673.44;;;20.22;42.18
12203;BME280;6164;42.178;24.622;2022-10-16T12:21:45;100662.13;;;20.33;41.63
12203;BME280;6164;42.178;24.622;2022-10-16T12:24:20;100666.47;;;20.40;41.52
12203;BME280;6164;42.178;24.622;2022-10-16T12:26:48;100694.91;;;20.41;40.11
12203;BME280;6164;42.178;24.622;2022-10-16T12:29:22;100645.63;;;20.49;43.13
12203;BME280;6164;42.178;24.622;2022-10-16T12:31:52;100646.84;;;20.53;42.29
12203;BME280;6164;42.178;24.622;2022-10-16T12:34:21;100671.63;;;20.61;40.96
12203;BME280;6164;42.178;24.622;2022-10-16T12:36:48;100666.22;;;20.74;41.21
12203;BME280;6164;42.178;24.622;2022-10-16T12:39:20;100678.63;;;20.82;40.28
12203;BME280;6164;42.178;24.622;2022-10-16T12:41:47;100688.31;;;20.83;40.72
12203;BME280;6164;42.178;24.622;2022-10-16T12:44:21;100683.78;;;20.90;40.53
12203;BME280;6164;42.178;24.622;2022-10-16T12:46:49;100679.63;;;20.94;40.68
12203;BME280;6164;42.178;24.622;2022-10-16T12:49:21;100654.91;;;20.99;42.25
12203;BME280;6164;42.178;24.622;2022-10-16T12:51:52;100705.66;;;20.93;39.38
12203;BME280;6164;42.178;24.622;2022-10-16T12:54:19;100722.22;;;20.97;39.32
12203;BME280;6164;42.178;24.622;2022-10-16T12:56:50;100727.38;;;21.05;39.39